sensor_id;sensor_type;location;lat;lon;timestamp;P1;durP1;ratioP1;P2;durP2;ratioP2
20080;SDS011;10200;49.232;9.222;2022-11-20T00:01:22;13.83;;;8.90;;
20080;SDS011;10200;49.232;9.222;2022-11-20T00:03:53;12.87;;;8.40;;
20080;SDS011;10200;49.232;9.222;2022-11-20T00:06:20;13.50;;;8.20;;
20080;SDS011;10200;49.232;9.222;2022-11-20T00:08:47;14.40;;;8.83;;
20080;SDS011;10200;49.232;9.222;2022-11-20T00:11:17;15.87;;;8.70;;
20080;SDS011;10200;49.232;9.222;2022-11-20T00:13:46;14.07;;;8.17;;
20080;SDS011;10200;49.232;9.222;2022-11-20T00:16:13;12.40;;;8.37;;
20080;SDS011;10200;49.232;9.222;2022-11-20T00:18:40;14.63;;;8.97;;
20080;SDS011;10200;49.232;9.222;2022-11-20T00:21:09;15.07;;;8.83;;
20080;SDS011;10200;49.232;9.222;2022-11-20T00:23:39;10.97;;;6.97;;
20080;SDS011;10200;49.232;9.222;2022-11-20T00:26:07;14.17;;;8.80;;
20080;SDS011;10200;49.232;9.222;2022-11-20T00:28:34;13.00;;;8.50;;
20080;SDS011;10200;49.232;9.222;2022-11-20T00:31:04;10.80;;;7.63;;
20080;SDS011;10200;49.232;9.222;2022-11-20T00:33:31;14.03;;;8.50;;
20080;SDS011;10200;49.232;9.222;2022-11-20T00:36:00;11.50;;;7.93;;
20080;SDS011;10200;49.232;9.222;2022-11-20T00:38:31;11.40;;;7.90;;
20080;SDS011;10200;49.232;9.222;2022-11-20T00:40:57;12.17;;;8.00;;
20080;SDS011;10200;49.232;9.222;2022-11-20T00:43:23;14.07;;;8.97;;
20080;SDS011;10200;49.232;9.222;2022-11-20T00:45:49;13.97;;;7.90;;
20080;SDS011;10200;49.232;9.222;2022-11-20T00:48:15;15.53;;;9.03;;
20080;SDS011;10200;49.232;9.222;2022-11-20T00:50:41;14.60;;;9.10;;
20080;SDS011;10200;49.232;9.222;2022-11-20T00:53:07;17.43;;;9.87;;
20080;SDS011;10200;49.232;9.222;2022-11-20T00:55:32;16.37;;;10.87;;
20080;SDS011;10200;49.232;9.222;2022-11-20T00:57:58;14.67;;;9.57;;
20080;SDS011;10200;49.232;9.222;2022-11-20T01:00:23;12.10;;;8.37;;
20080;SDS011;10200;49.232;9.222;2022-11-20T01:02:49;14.07;;;8.67;;
20080;SDS011;10200;49.232;9.222;2022-11-20T01:05:14;17.77;;;9.23;;
20080;SDS011;10200;49.232;9.222;2022-11-20T01:07:40;13.63;;;8.13;;
20080;SDS011;10200;49.232;9.222;2022-11-20T01:10:06;14.77;;;9.20;;
20080;SDS011;10200;49.232;9.222;2022-11-20T01:12:31;11.43;;;7.33;;
20080;SDS011;10200;49.232;9.222;2022-11-20T01:14:57;11.43;;;7.53;;
20080;SDS011;10200;49.232;9.222;2022-11-20T01:17:23;13.10;;;8.20;;
20080;SDS011;10200;49.232;9.222;2022-11-20T01:19:49;12.33;;;8.73;;
20080;SDS011;10200;49.232;9.222;2022-11-20T01:22:15;13.20;;;8.80;;
20080;SDS011;10200;49.232;9.222;2022-11-20T01:24:41;13.17;;;8.67;;
20080;SDS011;10200;49.232;9.222;2022-11-20T01:27:06;14.33;;;8.00;;
20080;SDS011;10200;49.232;9.222;2022-11-20T01:29:32;12.70;;;8.63;;
20080;SDS011;10200;49.232;9.222;2022-11-20T01:31:57;13.73;;;8.07;;
20080;SDS011;10200;49.232;9.222;2022-11-20T01:34:23;12.33;;;8.37;;
20080;SDS011;10200;49.232;9.222;2022-11-20T01:36:50;14.63;;;8.13;;
20080;SDS011;10200;49.232;9.222;2022-11-20T01:39:24;14.47;;;9.33;;
20080;SDS011;10200;49.232;9.222;2022-11-20T01:41:51;12.13;;;7.90;;
20080;SDS011;10200;49.232;9.222;2022-11-20T01:47:30;12.20;;;8.57;;
20080;SDS011;10200;49.232;9.222;2022-11-20T01:52:37;11.40;;;7.77;;
20080;SDS011;10200;49.232;9.222;2022-11-20T01:55:09;12.03;;;7.60;;
20080;SDS011;10200;49.232;9.222;2022-11-20T01:57:38;15.10;;;8.30;;
20080;SDS011;10200;49.232;9.222;2022-11-20T02:00:11;11.67;;;7.40;;
20080;SDS011;10200;49.232;9.222;2022-11-20T02:02:39;11.10;;;7.63;;
20080;SDS011;10200;49.232;9.222;2022-11-20T02:05:12;13.37;;;8.33;;
20080;SDS011;10200;49.232;9.222;2022-11-20T02:07:48;15.23;;;8.17;;
20080;SDS011;10200;49.232;9.222;2022-11-20T02:10:15;12.97;;;8.27;;
20080;SDS011;10200;49.232;9.222;2022-11-20T02:12:41;11.73;;;8.10;;
20080;SDS011;10200;49.232;9.222;2022-11-20T02:15:25;12.23;;;8.17;;
20080;SDS011;10200;49.232;9.222;2022-11-20T02:17:50;12.63;;;8.03;;
20080;SDS011;10200;49.232;9.222;2022-11-20T02:20:16;14.23;;;8.67;;
20080;SDS011;10200;49.232;9.222;2022-11-20T02:22:46;12.23;;;7.93;;
20080;SDS011;10200;49.232;9.222;2022-11-20T02:25:18;10.80;;;7.73;;
20080;SDS011;10200;49.232;9.222;2022-11-20T02:27:44;12.03;;;8.23;;
20080;SDS011;10200;49.232;9.222;2022-11-20T02:30:10;12.27;;;7.77;;
20080;SDS011;10200;49.232;9.222;2022-11-20T02:32:36;11.43;;;7.87;;
20080;SDS011;10200;49.232;9.222;2022-11-20T02:35:09;12.50;;;8.37;;
20080;SDS011;10200;49.232;9.222;2022-11-20T02:37:45;13.10;;;8.50;;
20080;SDS011;10200;49.232;9.222;2022-11-20T02:40:15;12.33;;;8.23;;
20080;SDS011;10200;49.232;9.222;2022-11-20T02:42:40;13.10;;;8.20;;
20080;SDS011;10200;49.232;9.222;2022-11-20T02:45:06;15.57;;;9.77;;
20080;SDS011;10200;49.232;9.222;2022-11-20T02:47:32;13.60;;;8.17;;
20080;SDS011;10200;49.232;9.222;2022-11-20T02:49:58;14.77;;;8.87;;
20080;SDS011;10200;49.232;9.222;2022-11-20T02:52:24;14.50;;;9.17;;
20080;SDS011;10200;49.232;9.222;2022-11-20T02:54:50;13.27;;;8.30;;
20080;SDS011;10200;49.232;9.222;2022-11-20T02:57:16;13.33;;;8.73;;
20080;SDS011;10200;49.232;9.222;2022-11-20T02:59:41;13.63;;;8.43;;
20080;SDS011;10200;49.232;9.222;2022-11-20T03:02:07;14.43;;;8.37;;
20080;SDS011;10200;49.232;9.222;2022-11-20T03:04:33;14.83;;;8.30;;
20080;SDS011;10200;49.232;9.222;2022-11-20T03:06:58;13.53;;;8.57;;
20080;SDS011;10200;49.232;9.222;2022-11-20T03:09:24;12.90;;;7.97;;
20080;SDS011;10200;49.232;9.222;2022-11-20T03:11:49;15.30;;;8.50;;
20080;SDS011;10200;49.232;9.222;2022-11-20T03:14:15;14.67;;;9.27;;
20080;SDS011;10200;49.232;9.222;2022-11-20T03:16:40;13.17;;;8.27;;
20080;SDS011;10200;49.232;9.222;2022-11-20T03:19:06;12.90;;;9.03;;
20080;SDS011;10200;49.232;9.222;2022-11-20T03:21:32;13.73;;;8.53;;
20080;SDS011;10200;49.232;9.222;2022-11-20T03:23:58;13.90;;;8.37;;
20080;SDS011;10200;49.232;9.222;2022-11-20T03:26:24;14.53;;;8.97;;
20080;SDS011;10200;49.232;9.222;2022-11-20T03:28:53;14.80;;;9.10;;
20080;SDS011;10200;49.232;9.222;2022-11-20T03:31:27;15.07;;;9.13;;
20080;SDS011;10200;49.232;9.222;2022-11-20T03:33:55;14.60;;;9.00;;
20080;SDS011;10200;49.232;9.222;2022-11-20T03:36:22;13.57;;;8.30;;
20080;SDS011;10200;49.232;9.222;2022-11-20T03:38:48;12.80;;;8.57;;
20080;SDS011;10200;49.232;9.222;2022-11-20T03:41:24;11.37;;;7.70;;
20080;SDS011;10200;49.232;9.222;2022-11-20T03:43:56;13.60;;;8.77;;
20080;SDS011;10200;49.232;9.222;2022-11-20T03:46:23;14.40;;;8.30;;
20080;SDS011;10200;49.232;9.222;2022-11-20T03:48:49;14.10;;;9.33;;
20080;SDS011;10200;49.232;9.222;2022-11-20T03:51:16;12.50;;;8.20;;
20080;SDS011;10200;49.232;9.222;2022-11-20T03:53:47;12.23;;;7.90;;
20080;SDS011;10200;49.232;9.222;2022-11-20T03:56:14;15.40;;;8.27;;
20080;SDS011;10200;49.232;9.222;2022-11-20T03:58:41;14.17;;;9.30;;
20080;SDS011;10200;49.232;9.222;2022-11-20T04:03:41;13.07;;;8.80;;
20080;SDS011;10200;49.232;9.222;2022-11-20T04:08:35;13.90;;;8.87;;
20080;SDS011;10200;49.232;9.222;2022-11-20T04:11:17;16.47;;;9.97;;
20080;SDS011;10200;49.232;9.222;2022-11-20T04:13:48;14.67;;;8.47;;
20080;SDS011;10200;49.232;9.222;2022-11-20T04:16:16;12.57;;;8.30;;
20080;SDS011;10200;49.232;9.222;2022-11-20T04:18:41;14.67;;;7.33;;
20080;SDS011;10200;49.232;9.222;2022-11-20T04:21:08;14.77;;;9.03;;
20080;SDS011;10200;49.232;9.222;2022-11-20T04:23:34;12.87;;;7.87;;
20080;SDS011;10200;49.232;9.222;2022-11-20T04:26:00;14.20;;;8.57;;
20080;SDS011;10200;49.232;9.222;2022-11-20T04:28:33;14.00;;;8.60;;
20080;SDS011;10200;49.232;9.222;2022-11-20T04:33:30;13.40;;;8.43;;
20080;SDS011;10200;49.232;9.222;2022-11-20T04:35:59;10.57;;;7.27;;
20080;SDS011;10200;49.232;9.222;2022-11-20T04:38:25;13.33;;;8.83;;
20080;SDS011;10200;49.232;9.222;2022-11-20T04:40:55;13.60;;;8.67;;
20080;SDS011;10200;49.232;9.222;2022-11-20T04:43:24;14.03;;;9.03;;
20080;SDS011;10200;49.232;9.222;2022-11-20T04:45:50;14.37;;;8.40;;
20080;SDS011;10200;49.232;9.222;2022-11-20T04:48:17;13.87;;;8.10;;
20080;SDS011;10200;49.232;9.222;2022-11-20T04:50:43;15.70;;;8.40;;
20080;SDS011;10200;49.232;9.222;2022-11-20T04:53:08;11.97;;;8.23;;
20080;SDS011;10200;49.232;9.222;2022-11-20T04:55:34;12.73;;;8.87;;
20080;SDS011;10200;49.232;9.222;2022-11-20T04:57:59;13.00;;;8.40;;
20080;SDS011;10200;49.232;9.222;2022-11-20T05:00:25;15.40;;;8.70;;
20080;SDS011;10200;49.232;9.222;2022-11-20T05:02:50;13.17;;;8.73;;
20080;SDS011;10200;49.232;9.222;2022-11-20T05:05:16;14.23;;;9.07;;
20080;SDS011;10200;49.232;9.222;2022-11-20T05:07:41;13.80;;;8.63;;
20080;SDS011;10200;49.232;9.222;2022-11-20T05:10:07;15.13;;;9.03;;
20080;SDS011;10200;49.232;9.222;2022-11-20T05:12:33;13.40;;;9.00;;
20080;SDS011;10200;49.232;9.222;2022-11-20T05:14:58;12.93;;;8.07;;
20080;SDS011;10200;49.232;9.222;2022-11-20T05:17:24;11.83;;;7.97;;
20080;SDS011;10200;49.232;9.222;2022-11-20T05:19:49;12.50;;;7.73;;
20080;SDS011;10200;49.232;9.222;2022-11-20T05:22:15;13.20;;;8.57;;
20080;SDS011;10200;49.232;9.222;2022-11-20T05:24:41;13.70;;;8.83;;
20080;SDS011;10200;49.232;9.222;2022-11-20T05:27:06;10.73;;;7.40;;
20080;SDS011;10200;49.232;9.222;2022-11-20T05:29:32;11.03;;;7.20;;
20080;SDS011;10200;49.232;9.222;2022-11-20T05:31:57;13.40;;;7.87;;
20080;SDS011;10200;49.232;9.222;2022-11-20T05:34:23;11.80;;;7.97;;
20080;SDS011;10200;49.232;9.222;2022-11-20T05:36:48;11.60;;;7.47;;
20080;SDS011;10200;49.232;9.222;2022-11-20T05:39:14;11.87;;;7.60;;
20080;SDS011;10200;49.232;9.222;2022-11-20T05:41:39;15.53;;;8.73;;
20080;SDS011;10200;49.232;9.222;2022-11-20T05:44:05;12.50;;;7.53;;
20080;SDS011;10200;49.232;9.222;2022-11-20T05:46:30;14.03;;;8.37;;
20080;SDS011;10200;49.232;9.222;2022-11-20T05:48:56;10.87;;;7.63;;
20080;SDS011;10200;49.232;9.222;2022-11-20T05:51:23;14.03;;;9.67;;
20080;SDS011;10200;49.232;9.222;2022-11-20T05:53:49;13.03;;;8.23;;
20080;SDS011;10200;49.232;9.222;2022-11-20T05:56:16;13.17;;;8.67;;
20080;SDS011;10200;49.232;9.222;2022-11-20T05:58:43;11.10;;;8.00;;
20080;SDS011;10200;49.232;9.222;2022-11-20T06:01:10;13.73;;;8.70;;
20080;SDS011;10200;49.232;9.222;2022-11-20T06:03:36;12.20;;;7.90;;
20080;SDS011;10200;49.232;9.222;2022-11-20T06:06:03;11.47;;;7.13;;
20080;SDS011;10200;49.232;9.222;2022-11-20T06:08:30;11.83;;;8.00;;
20080;SDS011;10200;49.232;9.222;2022-11-20T06:10:55;11.53;;;6.90;;
20080;SDS011;10200;49.232;9.222;2022-11-20T06:13:21;11.93;;;8.13;;
20080;SDS011;10200;49.232;9.222;2022-11-20T06:15:50;12.00;;;7.67;;
20080;SDS011;10200;49.232;9.222;2022-11-20T06:18:19;13.40;;;8.43;;
20080;SDS011;10200;49.232;9.222;2022-11-20T06:20:45;11.47;;;7.47;;
20080;SDS011;10200;49.232;9.222;2022-11-20T06:23:11;11.70;;;7.60;;
20080;SDS011;10200;49.232;9.222;2022-11-20T06:25:41;10.50;;;6.83;;
20080;SDS011;10200;49.232;9.222;2022-11-20T06:28:07;9.10;;;6.17;;
20080;SDS011;10200;49.232;9.222;2022-11-20T06:30:34;11.50;;;6.80;;
20080;SDS011;10200;49.232;9.222;2022-11-20T06:33:00;9.00;;;6.80;;
20080;SDS011;10200;49.232;9.222;2022-11-20T06:35:26;10.13;;;6.90;;
20080;SDS011;10200;49.232;9.222;2022-11-20T06:37:51;13.07;;;7.47;;
20080;SDS011;10200;49.232;9.222;2022-11-20T06:40:17;10.90;;;7.50;;
20080;SDS011;10200;49.232;9.222;2022-11-20T06:42:42;9.73;;;6.50;;
20080;SDS011;10200;49.232;9.222;2022-11-20T06:45:08;10.80;;;6.53;;
20080;SDS011;10200;49.232;9.222;2022-11-20T06:47:34;9.77;;;6.73;;
20080;SDS011;10200;49.232;9.222;2022-11-20T06:49:59;10.83;;;7.30;;
20080;SDS011;10200;49.232;9.222;2022-11-20T06:52:25;10.03;;;6.97;;
20080;SDS011;10200;49.232;9.222;2022-11-20T06:54:50;10.13;;;6.70;;
20080;SDS011;10200;49.232;9.222;2022-11-20T06:57:16;9.83;;;6.53;;
20080;SDS011;10200;49.232;9.222;2022-11-20T06:59:42;11.17;;;7.53;;
20080;SDS011;10200;49.232;9.222;2022-11-20T07:02:09;11.13;;;6.73;;
20080;SDS011;10200;49.232;9.222;2022-11-20T07:04:36;15.97;;;7.50;;
20080;SDS011;10200;49.232;9.222;2022-11-20T07:07:02;9.70;;;6.40;;
20080;SDS011;10200;49.232;9.222;2022-11-20T07:09:27;8.80;;;6.77;;
20080;SDS011;10200;49.232;9.222;2022-11-20T07:11:53;9.07;;;6.77;;
20080;SDS011;10200;49.232;9.222;2022-11-20T07:14:18;10.23;;;6.27;;
20080;SDS011;10200;49.232;9.222;2022-11-20T07:16:44;9.47;;;6.40;;
20080;SDS011;10200;49.232;9.222;2022-11-20T07:19:09;10.17;;;6.47;;
20080;SDS011;10200;49.232;9.222;2022-11-20T07:21:35;9.10;;;6.07;;
20080;SDS011;10200;49.232;9.222;2022-11-20T07:24:00;10.97;;;6.33;;
20080;SDS011;10200;49.232;9.222;2022-11-20T07:26:26;12.20;;;5.93;;
20080;SDS011;10200;49.232;9.222;2022-11-20T07:28:51;10.77;;;6.73;;
20080;SDS011;10200;49.232;9.222;2022-11-20T07:31:17;9.07;;;5.80;;
20080;SDS011;10200;49.232;9.222;2022-11-20T07:33:43;8.87;;;5.60;;
20080;SDS011;10200;49.232;9.222;2022-11-20T07:36:08;8.43;;;5.93;;
20080;SDS011;10200;49.232;9.222;2022-11-20T07:38:34;8.23;;;5.50;;
20080;SDS011;10200;49.232;9.222;2022-11-20T07:40:59;7.53;;;5.47;;
20080;SDS011;10200;49.232;9.222;2022-11-20T07:43:28;7.10;;;4.90;;
20080;SDS011;10200;49.232;9.222;2022-11-20T07:45:57;6.93;;;5.00;;
20080;SDS011;10200;49.232;9.222;2022-11-20T07:48:24;9.80;;;4.83;;
20080;SDS011;10200;49.232;9.222;2022-11-20T07:50:52;7.17;;;4.77;;
20080;SDS011;10200;49.232;9.222;2022-11-20T07:53:18;8.87;;;3.97;;
20080;SDS011;10200;49.232;9.222;2022-11-20T07:55:46;4.67;;;3.67;;
20080;SDS011;10200;49.232;9.222;2022-11-20T07:58:12;7.10;;;3.53;;
20080;SDS011;10200;49.232;9.222;2022-11-20T08:00:38;5.07;;;3.70;;
20080;SDS011;10200;49.232;9.222;2022-11-20T08:03:04;5.13;;;3.83;;
20080;SDS011;10200;49.232;9.222;2022-11-20T08:05:30;6.63;;;3.83;;
20080;SDS011;10200;49.232;9.222;2022-11-20T08:07:56;5.53;;;4.07;;
20080;SDS011;10200;49.232;9.222;2022-11-20T08:10:21;6.20;;;4.53;;
20080;SDS011;10200;49.232;9.222;2022-11-20T08:12:50;5.43;;;4.70;;
20080;SDS011;10200;49.232;9.222;2022-11-20T08:15:36;5.40;;;4.10;;
20080;SDS011;10200;49.232;9.222;2022-11-20T08:18:04;6.27;;;4.07;;
20080;SDS011;10200;49.232;9.222;2022-11-20T08:20:32;6.60;;;3.27;;
20080;SDS011;10200;49.232;9.222;2022-11-20T08:23:01;5.73;;;3.73;;
20080;SDS011;10200;49.232;9.222;2022-11-20T08:25:31;4.80;;;3.67;;
20080;SDS011;10200;49.232;9.222;2022-11-20T08:27:58;4.10;;;3.10;;
20080;SDS011;10200;49.232;9.222;2022-11-20T08:30:25;3.80;;;3.17;;
20080;SDS011;10200;49.232;9.222;2022-11-20T08:32:51;5.20;;;3.97;;
20080;SDS011;10200;49.232;9.222;2022-11-20T08:35:16;6.43;;;3.83;;
20080;SDS011;10200;49.232;9.222;2022-11-20T08:37:42;5.70;;;3.40;;
20080;SDS011;10200;49.232;9.222;2022-11-20T08:40:11;12.83;;;7.10;;
20080;SDS011;10200;49.232;9.222;2022-11-20T08:42:45;6.63;;;4.60;;
20080;SDS011;10200;49.232;9.222;2022-11-20T08:45:14;8.33;;;5.17;;
20080;SDS011;10200;49.232;9.222;2022-11-20T08:47:41;8.17;;;4.17;;
20080;SDS011;10200;49.232;9.222;2022-11-20T08:50:08;4.73;;;3.30;;
20080;SDS011;10200;49.232;9.222;2022-11-20T08:52:35;6.30;;;2.97;;
20080;SDS011;10200;49.232;9.222;2022-11-20T08:55:01;4.63;;;2.93;;
20080;SDS011;10200;49.232;9.222;2022-11-20T08:57:27;2.90;;;2.60;;
20080;SDS011;10200;49.232;9.222;2022-11-20T08:59:53;5.93;;;3.27;;
20080;SDS011;10200;49.232;9.222;2022-11-20T09:02:18;3.87;;;3.27;;
20080;SDS011;10200;49.232;9.222;2022-11-20T09:04:44;4.90;;;3.57;;
20080;SDS011;10200;49.232;9.222;2022-11-20T09:07:09;4.27;;;3.10;;
20080;SDS011;10200;49.232;9.222;2022-11-20T09:09:35;3.27;;;2.93;;
20080;SDS011;10200;49.232;9.222;2022-11-20T09:12:00;3.53;;;2.63;;
20080;SDS011;10200;49.232;9.222;2022-11-20T09:14:26;2.87;;;2.57;;
20080;SDS011;10200;49.232;9.222;2022-11-20T09:16:54;4.30;;;2.90;;
20080;SDS011;10200;49.232;9.222;2022-11-20T09:19:20;3.00;;;2.70;;
20080;SDS011;10200;49.232;9.222;2022-11-20T09:21:46;3.70;;;2.40;;
20080;SDS011;10200;49.232;9.222;2022-11-20T09:24:11;3.17;;;2.50;;
20080;SDS011;10200;49.232;9.222;2022-11-20T09:26:37;3.00;;;2.27;;
20080;SDS011;10200;49.232;9.222;2022-11-20T09:29:02;5.20;;;2.77;;
20080;SDS011;10200;49.232;9.222;2022-11-20T09:31:28;3.67;;;2.90;;
20080;SDS011;10200;49.232;9.222;2022-11-20T09:33:53;6.23;;;3.33;;
20080;SDS011;10200;49.232;9.222;2022-11-20T09:36:19;6.07;;;2.60;;
20080;SDS011;10200;49.232;9.222;2022-11-20T09:38:45;2.70;;;1.90;;
20080;SDS011;10200;49.232;9.222;2022-11-20T09:46:53;4.20;;;3.33;;
20080;SDS011;10200;49.232;9.222;2022-11-20T09:49:38;4.30;;;2.90;;
20080;SDS011;10200;49.232;9.222;2022-11-20T09:55:25;4.70;;;3.47;;
20080;SDS011;10200;49.232;9.222;2022-11-20T09:57:52;4.13;;;3.53;;
20080;SDS011;10200;49.232;9.222;2022-11-20T10:00:19;3.57;;;3.13;;
20080;SDS011;10200;49.232;9.222;2022-11-20T10:10:42;4.30;;;3.23;;
20080;SDS011;10200;49.232;9.222;2022-11-20T10:14:17;3.63;;;3.10;;
20080;SDS011;10200;49.232;9.222;2022-11-20T10:18:48;5.17;;;3.17;;
20080;SDS011;10200;49.232;9.222;2022-11-20T10:29:29;6.03;;;3.00;;
20080;SDS011;10200;49.232;9.222;2022-11-20T10:32:07;3.30;;;2.67;;
20080;SDS011;10200;49.232;9.222;2022-11-20T10:34:57;4.67;;;2.70;;
20080;SDS011;10200;49.232;9.222;2022-11-20T10:37:30;2.93;;;2.33;;
20080;SDS011;10200;49.232;9.222;2022-11-20T10:43:01;2.07;;;1.87;;
20080;SDS011;10200;49.232;9.222;2022-11-20T10:45:34;3.30;;;2.70;;
20080;SDS011;10200;49.232;9.222;2022-11-20T10:48:08;2.83;;;2.30;;
20080;SDS011;10200;49.232;9.222;2022-11-20T10:50:37;2.93;;;2.40;;
20080;SDS011;10200;49.232;9.222;2022-11-20T10:56:07;3.33;;;2.60;;
20080;SDS011;10200;49.232;9.222;2022-11-20T10:59:03;3.10;;;2.13;;
20080;SDS011;10200;49.232;9.222;2022-11-20T11:01:49;3.97;;;3.07;;
20080;SDS011;10200;49.232;9.222;2022-11-20T11:07:16;3.13;;;2.20;;
20080;SDS011;10200;49.232;9.222;2022-11-20T11:09:43;3.40;;;2.40;;
20080;SDS011;10200;49.232;9.222;2022-11-20T11:12:14;3.27;;;2.50;;
20080;SDS011;10200;49.232;9.222;2022-11-20T11:14:43;5.17;;;2.30;;
20080;SDS011;10200;49.232;9.222;2022-11-20T11:19:56;5.23;;;2.30;;
20080;SDS011;10200;49.232;9.222;2022-11-20T11:22:39;2.67;;;2.40;;
20080;SDS011;10200;49.232;9.222;2022-11-20T11:25:29;4.87;;;1.70;;
20080;SDS011;10200;49.232;9.222;2022-11-20T11:27:56;3.33;;;2.00;;
20080;SDS011;10200;49.232;9.222;2022-11-20T11:30:25;2.27;;;1.70;;
20080;SDS011;10200;49.232;9.222;2022-11-20T11:33:02;4.17;;;2.20;;
20080;SDS011;10200;49.232;9.222;2022-11-20T11:35:29;3.97;;;1.70;;
20080;SDS011;10200;49.232;9.222;2022-11-20T11:38:02;5.40;;;1.97;;
20080;SDS011;10200;49.232;9.222;2022-11-20T11:40:32;1.77;;;1.60;;
20080;SDS011;10200;49.232;9.222;2022-11-20T11:43:01;3.47;;;2.00;;
20080;SDS011;10200;49.232;9.222;2022-11-20T11:45:30;2.07;;;1.87;;
20080;SDS011;10200;49.232;9.222;2022-11-20T11:47:56;2.27;;;1.90;;
20080;SDS011;10200;49.232;9.222;2022-11-20T11:50:26;3.23;;;2.13;;
20080;SDS011;10200;49.232;9.222;2022-11-20T12:04:02;4.47;;;2.90;;
20080;SDS011;10200;49.232;9.222;2022-11-20T12:06:36;5.30;;;2.83;;
20080;SDS011;10200;49.232;9.222;2022-11-20T12:09:10;5.90;;;2.10;;
20080;SDS011;10200;49.232;9.222;2022-11-20T12:11:38;3.33;;;2.13;;
20080;SDS011;10200;49.232;9.222;2022-11-20T12:14:37;2.10;;;1.90;;
20080;SDS011;10200;49.232;9.222;2022-11-20T12:17:11;2.87;;;1.93;;
20080;SDS011;10200;49.232;9.222;2022-11-20T12:19:38;3.83;;;2.43;;
20080;SDS011;10200;49.232;9.222;2022-11-20T12:24:51;5.73;;;2.30;;
20080;SDS011;10200;49.232;9.222;2022-11-20T12:30:13;3.10;;;2.33;;
20080;SDS011;10200;49.232;9.222;2022-11-20T12:35:35;2.83;;;1.70;;
20080;SDS011;10200;49.232;9.222;2022-11-20T12:43:22;3.67;;;1.97;;
20080;SDS011;10200;49.232;9.222;2022-11-20T12:52:05;2.50;;;1.70;;
20080;SDS011;10200;49.232;9.222;2022-11-20T12:54:53;2.63;;;1.87;;
20080;SDS011;10200;49.232;9.222;2022-11-20T13:00:16;5.17;;;1.93;;
20080;SDS011;10200;49.232;9.222;2022-11-20T13:03:03;3.37;;;1.50;;
20080;SDS011;10200;49.232;9.222;2022-11-20T13:05:37;2.73;;;1.27;;
20080;SDS011;10200;49.232;9.222;2022-11-20T13:08:35;4.73;;;1.93;;
20080;SDS011;10200;49.232;9.222;2022-11-20T13:13:43;3.43;;;1.70;;
20080;SDS011;10200;49.232;9.222;2022-11-20T13:19:11;2.00;;;1.53;;
20080;SDS011;10200;49.232;9.222;2022-11-20T13:21:43;3.70;;;1.47;;
20080;SDS011;10200;49.232;9.222;2022-11-20T13:29:29;2.10;;;1.40;;
20080;SDS011;10200;49.232;9.222;2022-11-20T13:34:51;5.47;;;2.03;;
20080;SDS011;10200;49.232;9.222;2022-11-20T13:37:28;1.50;;;1.30;;
20080;SDS011;10200;49.232;9.222;2022-11-20T13:42:37;1.53;;;1.13;;
20080;SDS011;10200;49.232;9.222;2022-11-20T13:45:09;2.90;;;1.50;;
20080;SDS011;10200;49.232;9.222;2022-11-20T13:47:47;2.50;;;1.43;;
20080;SDS011;10200;49.232;9.222;2022-11-20T13:50:14;6.37;;;1.17;;
20080;SDS011;10200;49.232;9.222;2022-11-20T13:52:49;4.00;;;1.93;;
20080;SDS011;10200;49.232;9.222;2022-11-20T14:03:33;2.77;;;1.27;;
20080;SDS011;10200;49.232;9.222;2022-11-20T14:06:04;1.83;;;1.40;;
20080;SDS011;10200;49.232;9.222;2022-11-20T14:08:39;1.87;;;1.17;;
20080;SDS011;10200;49.232;9.222;2022-11-20T14:11:16;2.77;;;1.40;;
20080;SDS011;10200;49.232;9.222;2022-11-20T14:16:40;1.63;;;0.90;;
20080;SDS011;10200;49.232;9.222;2022-11-20T14:21:47;2.47;;;1.27;;
20080;SDS011;10200;49.232;9.222;2022-11-20T14:24:21;1.67;;;1.40;;
20080;SDS011;10200;49.232;9.222;2022-11-20T14:26:48;4.13;;;1.17;;
20080;SDS011;10200;49.232;9.222;2022-11-20T14:29:16;1.87;;;0.90;;
20080;SDS011;10200;49.232;9.222;2022-11-20T14:31:46;1.77;;;0.90;;
20080;SDS011;10200;49.232;9.222;2022-11-20T14:34:25;4.23;;;1.43;;
20080;SDS011;10200;49.232;9.222;2022-11-20T14:36:57;2.27;;;1.30;;
20080;SDS011;10200;49.232;9.222;2022-11-20T14:39:28;1.57;;;1.00;;
20080;SDS011;10200;49.232;9.222;2022-11-20T14:42:02;1.40;;;1.03;;
20080;SDS011;10200;49.232;9.222;2022-11-20T14:44:39;1.60;;;1.20;;
20080;SDS011;10200;49.232;9.222;2022-11-20T14:47:05;3.60;;;1.50;;
20080;SDS011;10200;49.232;9.222;2022-11-20T14:49:31;5.23;;;1.37;;
20080;SDS011;10200;49.232;9.222;2022-11-20T14:52:01;6.10;;;1.40;;
20080;SDS011;10200;49.232;9.222;2022-11-20T14:54:45;1.73;;;1.30;;
20080;SDS011;10200;49.232;9.222;2022-11-20T14:57:34;2.07;;;1.20;;
20080;SDS011;10200;49.232;9.222;2022-11-20T15:02:40;3.53;;;1.80;;
20080;SDS011;10200;49.232;9.222;2022-11-20T15:05:07;1.17;;;1.07;;
20080;SDS011;10200;49.232;9.222;2022-11-20T15:07:35;3.03;;;1.30;;
20080;SDS011;10200;49.232;9.222;2022-11-20T15:10:11;5.40;;;1.77;;
20080;SDS011;10200;49.232;9.222;2022-11-20T15:12:38;5.27;;;1.50;;
20080;SDS011;10200;49.232;9.222;2022-11-20T15:15:12;5.20;;;2.03;;
20080;SDS011;10200;49.232;9.222;2022-11-20T15:17:41;2.67;;;1.43;;
20080;SDS011;10200;49.232;9.222;2022-11-20T15:20:12;3.03;;;1.37;;
20080;SDS011;10200;49.232;9.222;2022-11-20T15:22:40;1.70;;;1.00;;
20080;SDS011;10200;49.232;9.222;2022-11-20T15:25:15;2.20;;;1.00;;
20080;SDS011;10200;49.232;9.222;2022-11-20T15:27:42;1.30;;;1.20;;
20080;SDS011;10200;49.232;9.222;2022-11-20T15:30:18;5.60;;;1.50;;
20080;SDS011;10200;49.232;9.222;2022-11-20T15:32:45;2.80;;;1.03;;
20080;SDS011;10200;49.232;9.222;2022-11-20T15:35:11;1.93;;;1.60;;
20080;SDS011;10200;49.232;9.222;2022-11-20T15:37:37;2.17;;;1.30;;
20080;SDS011;10200;49.232;9.222;2022-11-20T15:40:04;1.70;;;1.10;;
20080;SDS011;10200;49.232;9.222;2022-11-20T15:42:31;2.97;;;1.17;;
20080;SDS011;10200;49.232;9.222;2022-11-20T15:44:57;5.50;;;2.20;;
20080;SDS011;10200;49.232;9.222;2022-11-20T15:47:25;5.20;;;2.13;;
20080;SDS011;10200;49.232;9.222;2022-11-20T15:49:59;4.37;;;2.80;;
20080;SDS011;10200;49.232;9.222;2022-11-20T15:52:25;9.43;;;3.87;;
20080;SDS011;10200;49.232;9.222;2022-11-20T15:54:50;3.90;;;1.80;;
20080;SDS011;10200;49.232;9.222;2022-11-20T15:57:16;3.53;;;1.77;;
20080;SDS011;10200;49.232;9.222;2022-11-20T15:59:42;2.70;;;1.30;;
20080;SDS011;10200;49.232;9.222;2022-11-20T16:02:10;4.63;;;2.10;;
20080;SDS011;10200;49.232;9.222;2022-11-20T16:04:37;5.67;;;2.63;;
20080;SDS011;10200;49.232;9.222;2022-11-20T16:07:03;6.77;;;2.97;;
20080;SDS011;10200;49.232;9.222;2022-11-20T16:09:28;8.10;;;3.50;;
20080;SDS011;10200;49.232;9.222;2022-11-20T16:11:54;5.40;;;3.17;;
20080;SDS011;10200;49.232;9.222;2022-11-20T16:14:19;7.30;;;4.43;;
20080;SDS011;10200;49.232;9.222;2022-11-20T16:17:03;10.60;;;5.23;;
20080;SDS011;10200;49.232;9.222;2022-11-20T16:19:29;8.37;;;5.27;;
20080;SDS011;10200;49.232;9.222;2022-11-20T16:21:54;8.07;;;5.67;;
20080;SDS011;10200;49.232;9.222;2022-11-20T16:24:21;6.53;;;5.00;;
20080;SDS011;10200;49.232;9.222;2022-11-20T16:26:47;9.87;;;5.93;;
20080;SDS011;10200;49.232;9.222;2022-11-20T16:29:13;10.13;;;5.80;;
20080;SDS011;10200;49.232;9.222;2022-11-20T16:31:38;9.97;;;5.30;;
20080;SDS011;10200;49.232;9.222;2022-11-20T16:34:05;10.93;;;5.10;;
20080;SDS011;10200;49.232;9.222;2022-11-20T16:36:32;7.00;;;4.80;;
20080;SDS011;10200;49.232;9.222;2022-11-20T16:38:58;12.27;;;5.43;;
20080;SDS011;10200;49.232;9.222;2022-11-20T16:41:25;9.57;;;5.90;;
20080;SDS011;10200;49.232;9.222;2022-11-20T16:43:53;8.67;;;5.40;;
20080;SDS011;10200;49.232;9.222;2022-11-20T16:46:22;7.27;;;4.70;;
20080;SDS011;10200;49.232;9.222;2022-11-20T16:48:59;6.93;;;4.07;;